sensor_id;sensor_type;location;lat;lon;timestamp;pressure;altitude;pressure_sealevel;temperature;humidity
40117;BME280;25829;50.228;18.936;2022-07-23T00:02:07;98591.53;;;19.33;64.41
40117;BME280;25829;50.228;18.936;2022-07-23T00:05:09;98597.13;;;19.32;64.33
40117;BME280;25829;50.228;18.936;2022-07-23T00:08:09;98588.56;;;19.30;64.32
40117;BME280;25829;50.228;18.936;2022-07-23T00:11:10;98592.28;;;19.24;64.49
40117;BME280;25829;50.228;18.936;2022-07-23T00:14:11;98598.69;;;19.23;64.43
40117;BME280;25829;50.228;18.936;2022-07-23T00:17:11;98601.63;;;19.21;64.23
40117;BME280;25829;50.228;18.936;2022-07-23T00:20:12;98591.72;;;19.17;64.25
40117;BME280;25829;50.228;18.936;2022-07-23T00:23:14;98586.63;;;19.15;64.26
40117;BME280;25829;50.228;18.936;2022-07-23T00:26:15;98593.03;;;19.14;64.48
40117;BME280;25829;50.228;18.936;2022-07-23T00:29:16;98595.19;;;19.12;64.51
40117;BME280;25829;50.228;18.936;2022-07-23T00:32:17;98590.06;;;19.05;64.69
40117;BME280;25829;50.228;18.936;2022-07-23T00:35:21;98582.81;;;19.01;64.78
40117;BME280;25829;50.228;18.936;2022-07-23T00:38:22;98583.59;;;18.96;64.73
40117;BME280;25829;50.228;18.936;2022-07-23T00:41:23;98593.19;;;18.92;65.13
40117;BME280;25829;50.228;18.936;2022-07-23T00:44:26;98588.63;;;18.88;65.05
40117;BME280;25829;50.228;18.936;2022-07-23T00:47:27;98603.03;;;18.86;65.19
40117;BME280;25829;50.228;18.936;2022-07-23T00:50:28;98599.53;;;18.81;65.28
40117;BME280;25829;50.228;18.936;2022-07-23T00:53:29;98602.44;;;18.79;65.39
40117;BME280;25829;50.228;18.936;2022-07-23T00:56:32;98595.75;;;18.77;65.35
40117;BME280;25829;50.228;18.936;2022-07-23T00:59:33;98598.66;;;18.75;65.42
40117;BME280;25829;50.228;18.936;2022-07-23T01:02:34;98608.28;;;18.71;65.70
40117;BME280;25829;50.228;18.936;2022-07-23T01:05:35;98600.25;;;18.71;65.47
40117;BME280;25829;50.228;18.936;2022-07-23T01:08:36;98595.41;;;18.68;65.44
40117;BME280;25829;50.228;18.936;2022-07-23T01:11:37;98602.63;;;18.68;65.34
40117;BME280;25829;50.228;18.936;2022-07-23T01:14:40;98599.97;;;18.68;65.28
40117;BME280;25829;50.228;18.936;2022-07-23T01:17:41;98596.50;;;18.67;65.30
40117;BME280;25829;50.228;18.936;2022-07-23T01:20:42;98596.72;;;18.66;65.54
40117;BME280;25829;50.228;18.936;2022-07-23T01:23:43;98602.34;;;18.64;65.24
40117;BME280;25829;50.228;18.936;2022-07-23T01:26:45;98594.31;;;18.64;65.12
40117;BME280;25829;50.228;18.936;2022-07-23T01:29:46;98585.75;;;18.62;65.33
40117;BME280;25829;50.228;18.936;2022-07-23T01:32:52;98590.56;;;18.60;65.24
40117;BME280;25829;50.228;18.936;2022-07-23T01:35:53;98579.53;;;18.51;65.40
40117;BME280;25829;50.228;18.936;2022-07-23T01:38:58;98588.63;;;18.50;65.59
40117;BME280;25829;50.228;18.936;2022-07-23T01:41:58;98591.00;;;18.47;65.54
40117;BME280;25829;50.228;18.936;2022-07-23T01:45:01;98593.91;;;18.45;65.54
40117;BME280;25829;50.228;18.936;2022-07-23T01:48:02;98590.94;;;18.42;65.74
40117;BME280;25829;50.228;18.936;2022-07-23T01:51:04;98593.28;;;18.33;65.78
40117;BME280;25829;50.228;18.936;2022-07-23T01:54:15;98588.06;;;18.16;65.91
40117;BME280;25829;50.228;18.936;2022-07-23T01:57:16;98590.72;;;18.11;66.31
40117;BME280;25829;50.228;18.936;2022-07-23T02:00:18;98583.50;;;18.11;66.21
40117;BME280;25829;50.228;18.936;2022-07-23T02:03:23;98585.03;;;18.07;66.09
40117;BME280;25829;50.228;18.936;2022-07-23T02:06:23;98591.16;;;18.03;66.33
40117;BME280;25829;50.228;18.936;2022-07-23T02:09:24;98589.84;;;18.05;66.28
40117;BME280;25829;50.228;18.936;2022-07-23T02:12:25;98592.50;;;18.05;66.34
40117;BME280;25829;50.228;18.936;2022-07-23T02:15:26;98588.47;;;18.03;66.26
40117;BME280;25829;50.228;18.936;2022-07-23T02:18:27;98592.75;;;18.04;66.27
40117;BME280;25829;50.228;18.936;2022-07-23T02:21:27;98600.75;;;18.04;66.37
40117;BME280;25829;50.228;18.936;2022-07-23T02:24:28;98593.81;;;18.03;66.26
40117;BME280;25829;50.228;18.936;2022-07-23T02:27:29;98584.75;;;18.04;66.23
40117;BME280;25829;50.228;18.936;2022-07-23T02:30:30;98591.16;;;18.03;66.20
40117;BME280;25829;50.228;18.936;2022-07-23T02:33:31;98584.69;;;17.99;65.98
40117;BME280;25829;50.228;18.936;2022-07-23T02:36:32;98582.28;;;17.97;66.43
40117;BME280;25829;50.228;18.936;2022-07-23T02:39:33;98579.28;;;17.93;66.50
40117;BME280;25829;50.228;18.936;2022-07-23T02:42:34;98582.47;;;17.90;66.57
40117;BME280;25829;50.228;18.936;2022-07-23T02:45:35;98578.63;;;17.81;66.49
40117;BME280;25829;50.228;18.936;2022-07-23T02:48:35;98575.41;;;17.79;66.64
40117;BME280;25829;50.228;18.936;2022-07-23T02:51:36;98577.03;;;17.80;66.75
40117;BME280;25829;50.228;18.936;2022-07-23T02:54:40;98568.75;;;17.82;66.60
40117;BME280;25829;50.228;18.936;2022-07-23T02:57:40;98569.56;;;17.82;66.72
40117;BME280;25829;50.228;18.936;2022-07-23T03:00:41;98569.84;;;17.81;66.60
40117;BME280;25829;50.228;18.936;2022-07-23T03:03:42;98567.16;;;17.81;66.77
40117;BME280;25829;50.228;18.936;2022-07-23T03:06:43;98568.22;;;17.80;67.03
40117;BME280;25829;50.228;18.936;2022-07-23T03:09:43;98566.38;;;17.80;66.81
40117;BME280;25829;50.228;18.936;2022-07-23T03:12:44;98563.13;;;17.78;66.75
40117;BME280;25829;50.228;18.936;2022-07-23T03:15:45;98565.22;;;17.76;66.75
40117;BME280;25829;50.228;18.936;2022-07-23T03:18:46;98573.50;;;17.75;66.91
40117;BME280;25829;50.228;18.936;2022-07-23T03:21:46;98567.88;;;17.71;66.81
40117;BME280;25829;50.228;18.936;2022-07-23T03:24:47;98571.28;;;17.66;66.82
40117;BME280;25829;50.228;18.936;2022-07-23T03:27:56;98574.38;;;17.58;66.90
40117;BME280;25829;50.228;18.936;2022-07-23T03:30:57;98566.03;;;17.50;66.95
40117;BME280;25829;50.228;18.936;2022-07-23T03:33:58;98570.47;;;17.39;67.72
40117;BME280;25829;50.228;18.936;2022-07-23T03:36:59;98564.13;;;17.23;67.68
40117;BME280;25829;50.228;18.936;2022-07-23T03:40:00;98571.28;;;17.17;67.85
40117;BME280;25829;50.228;18.936;2022-07-23T03:43:01;98570.22;;;17.18;68.15
40117;BME280;25829;50.228;18.936;2022-07-23T03:46:02;98572.38;;;17.21;67.96
40117;BME280;25829;50.228;18.936;2022-07-23T03:49:04;98571.94;;;17.30;67.97
40117;BME280;25829;50.228;18.936;2022-07-23T03:52:05;98584.03;;;17.37;68.07
40117;BME280;25829;50.228;18.936;2022-07-23T03:55:06;98586.81;;;17.48;67.64
40117;BME280;25829;50.228;18.936;2022-07-23T03:58:07;98585.56;;;17.55;67.81
40117;BME280;25829;50.228;18.936;2022-07-23T04:01:08;98586.38;;;17.56;67.85
40117;BME280;25829;50.228;18.936;2022-07-23T04:04:09;98593.56;;;17.55;67.80
40117;BME280;25829;50.228;18.936;2022-07-23T04:07:12;98594.44;;;17.61;67.63
40117;BME280;25829;50.228;18.936;2022-07-23T04:10:13;98580.63;;;17.69;67.68
40117;BME280;25829;50.228;18.936;2022-07-23T04:13:14;98582.88;;;17.77;67.58
40117;BME280;25829;50.228;18.936;2022-07-23T04:16:15;98578.94;;;17.85;67.55
40117;BME280;25829;50.228;18.936;2022-07-23T04:32:52;98579.56;;;18.19;67.86
40117;BME280;25829;50.228;18.936;2022-07-23T04:35:58;98577.72;;;18.25;68.33
40117;BME280;25829;50.228;18.936;2022-07-23T04:38:58;98577.47;;;18.26;68.14
40117;BME280;25829;50.228;18.936;2022-07-23T04:42:00;98566.28;;;18.29;68.12
40117;BME280;25829;50.228;18.936;2022-07-23T04:45:04;98578.34;;;18.37;67.75
40117;BME280;25829;50.228;18.936;2022-07-23T04:48:05;98572.03;;;18.48;67.58
40117;BME280;25829;50.228;18.936;2022-07-23T04:51:06;98575.88;;;18.62;67.38
40117;BME280;25829;50.228;18.936;2022-07-23T04:54:08;98574.06;;;18.73;67.27
40117;BME280;25829;50.228;18.936;2022-07-23T04:57:10;98563.44;;;18.83;67.04
40117;BME280;25829;50.228;18.936;2022-07-23T05:00:11;98565.94;;;18.95;67.03
40117;BME280;25829;50.228;18.936;2022-07-23T05:03:12;98568.69;;;19.10;67.03
40117;BME280;25829;50.228;18.936;2022-07-23T05:06:16;98568.22;;;19.24;66.68
40117;BME280;25829;50.228;18.936;2022-07-23T05:09:17;98567.44;;;19.33;66.40
40117;BME280;25829;50.228;18.936;2022-07-23T05:12:18;98566.41;;;19.45;66.36
40117;BME280;25829;50.228;18.936;2022-07-23T05:15:19;98559.75;;;19.52;66.42
40117;BME280;25829;50.228;18.936;2022-07-23T05:18:20;98565.91;;;19.63;66.13
40117;BME280;25829;50.228;18.936;2022-07-23T05:21:21;98562.50;;;19.68;65.81
40117;BME280;25829;50.228;18.936;2022-07-23T05:24:22;98561.16;;;19.80;65.63
40117;BME280;25829;50.228;18.936;2022-07-23T05:27:24;98563.88;;;19.96;65.83
40117;BME280;25829;50.228;18.936;2022-07-23T05:30:25;98567.63;;;20.10;65.54
40117;BME280;25829;50.228;18.936;2022-07-23T05:33:32;98564.16;;;20.30;65.20
40117;BME280;25829;50.228;18.936;2022-07-23T05:36:33;98565.25;;;20.44;64.81
40117;BME280;25829;50.228;18.936;2022-07-23T05:39:35;98566.31;;;20.59;64.63
40117;BME280;25829;50.228;18.936;2022-07-23T05:42:39;98556.13;;;20.71;64.48
40117;BME280;25829;50.228;18.936;2022-07-23T05:45:41;98555.25;;;20.86;64.33
40117;BME280;25829;50.228;18.936;2022-07-23T05:48:42;98548.25;;;21.00;63.99
40117;BME280;25829;50.228;18.936;2022-07-23T05:52:04;98544.97;;;21.13;63.96
40117;BME280;25829;50.228;18.936;2022-07-23T05:55:20;98537.13;;;21.32;63.63
40117;BME280;25829;50.228;18.936;2022-07-23T05:58:21;98531.94;;;21.51;63.24
40117;BME280;25829;50.228;18.936;2022-07-23T06:01:22;98518.97;;;21.68;62.58
40117;BME280;25829;50.228;18.936;2022-07-23T06:04:30;98517.47;;;21.86;62.27
40117;BME280;25829;50.228;18.936;2022-07-23T06:07:49;98509.31;;;22.02;61.90
40117;BME280;25829;50.228;18.936;2022-07-23T06:10:50;98498.22;;;22.13;61.66
40117;BME280;25829;50.228;18.936;2022-07-23T06:13:51;98499.72;;;22.25;61.40
40117;BME280;25829;50.228;18.936;2022-07-23T06:16:54;98496.66;;;22.36;61.21
40117;BME280;25829;50.228;18.936;2022-07-23T06:19:56;98495.19;;;22.49;61.20
40117;BME280;25829;50.228;18.936;2022-07-23T06:22:57;98492.38;;;22.59;60.84
40117;BME280;25829;50.228;18.936;2022-07-23T06:25:57;98502.72;;;22.76;60.72
40117;BME280;25829;50.228;18.936;2022-07-23T06:28:58;98503.84;;;22.94;60.14
40117;BME280;25829;50.228;18.936;2022-07-23T06:32:00;98500.91;;;23.15;60.01
40117;BME280;25829;50.228;18.936;2022-07-23T06:35:02;98507.06;;;23.39;59.04
40117;BME280;25829;50.228;18.936;2022-07-23T06:38:03;98507.00;;;23.63;58.58
40117;BME280;25829;50.228;18.936;2022-07-23T06:41:04;98503.56;;;23.76;57.40
40117;BME280;25829;50.228;18.936;2022-07-23T06:44:05;98510.91;;;23.90;57.47
40117;BME280;25829;50.228;18.936;2022-07-23T06:47:08;98512.59;;;24.04;57.55
40117;BME280;25829;50.228;18.936;2022-07-23T06:50:16;98512.03;;;24.21;56.87
40117;BME280;25829;50.228;18.936;2022-07-23T06:53:16;98502.66;;;24.33;56.89
40117;BME280;25829;50.228;18.936;2022-07-23T06:56:35;98513.69;;;24.50;56.39
40117;BME280;25829;50.228;18.936;2022-07-23T06:59:37;98508.09;;;24.60;56.26
40117;BME280;25829;50.228;18.936;2022-07-23T07:02:40;98508.72;;;24.71;56.34
40117;BME280;25829;50.228;18.936;2022-07-23T07:05:41;98507.63;;;24.86;55.90
40117;BME280;25829;50.228;18.936;2022-07-23T07:08:42;98508.13;;;25.02;55.84
40117;BME280;25829;50.228;18.936;2022-07-23T07:11:44;98499.88;;;25.20;55.34
40117;BME280;25829;50.228;18.936;2022-07-23T07:14:44;98493.41;;;25.35;54.91
40117;BME280;25829;50.228;18.936;2022-07-23T07:17:45;98495.25;;;25.48;54.54
40117;BME280;25829;50.228;18.936;2022-07-23T07:20:49;98502.69;;;25.65;54.06
40117;BME280;25829;50.228;18.936;2022-07-23T07:23:53;98504.13;;;25.85;53.73
40117;BME280;25829;50.228;18.936;2022-07-23T07:26:55;98499.03;;;26.06;53.22
40117;BME280;25829;50.228;18.936;2022-07-23T07:29:56;98496.16;;;26.25;52.61
40117;BME280;25829;50.228;18.936;2022-07-23T07:33:00;98504.19;;;26.48;52.54
40117;BME280;25829;50.228;18.936;2022-07-23T07:36:01;98503.41;;;26.78;51.82
40117;BME280;25829;50.228;18.936;2022-07-23T07:39:04;98509.38;;;27.06;51.41
40117;BME280;25829;50.228;18.936;2022-07-23T07:42:08;98500.50;;;27.32;50.14
40117;BME280;25829;50.228;18.936;2022-07-23T07:45:23;98513.47;;;27.70;48.61
40117;BME280;25829;50.228;18.936;2022-07-23T07:48:25;98508.03;;;27.96;48.94
40117;BME280;25829;50.228;18.936;2022-07-23T07:51:38;98508.16;;;28.17;48.32
40117;BME280;25829;50.228;18.936;2022-07-23T07:54:57;98519.78;;;28.35;47.13
40117;BME280;25829;50.228;18.936;2022-07-23T07:58:01;98515.78;;;28.41;47.49
40117;BME280;25829;50.228;18.936;2022-07-23T08:01:02;98525.00;;;28.48;46.41
40117;BME280;25829;50.228;18.936;2022-07-23T08:04:12;98511.91;;;28.50;45.41
40117;BME280;25829;50.228;18.936;2022-07-23T08:07:13;98506.94;;;28.52;46.25
40117;BME280;25829;50.228;18.936;2022-07-23T08:10:20;98496.22;;;28.56;45.33
40117;BME280;25829;50.228;18.936;2022-07-23T08:13:33;98495.41;;;28.64;45.44
40117;BME280;25829;50.228;18.936;2022-07-23T08:16:37;98478.28;;;28.72;45.66
40117;BME280;25829;50.228;18.936;2022-07-23T08:19:46;98478.88;;;28.87;45.09
40117;BME280;25829;50.228;18.936;2022-07-23T08:25:51;98464.00;;;29.14;43.80
40117;BME280;25829;50.228;18.936;2022-07-23T08:28:52;98470.75;;;29.29;43.02
40117;BME280;25829;50.228;18.936;2022-07-23T08:31:53;98472.16;;;29.56;42.74
40117;BME280;25829;50.228;18.936;2022-07-23T08:34:56;98467.03;;;29.96;42.63
40117;BME280;25829;50.228;18.936;2022-07-23T08:38:02;98478.47;;;30.47;42.00
40117;BME280;25829;50.228;18.936;2022-07-23T08:41:12;98475.38;;;31.22;41.00
40117;BME280;25829;50.228;18.936;2022-07-23T08:44:15;98476.25;;;32.07;41.18
40117;BME280;25829;50.228;18.936;2022-07-23T08:50:46;98479.94;;;33.87;38.91
40117;BME280;25829;50.228;18.936;2022-07-23T08:53:56;98479.56;;;34.77;37.31
40117;BME280;25829;50.228;18.936;2022-07-23T08:56:57;98476.56;;;35.43;37.15
40117;BME280;25829;50.228;18.936;2022-07-23T08:59:58;98478.06;;;36.08;33.81
40117;BME280;25829;50.228;18.936;2022-07-23T09:02:59;98480.28;;;36.32;33.48
40117;BME280;25829;50.228;18.936;2022-07-23T09:06:00;98465.91;;;36.49;33.58
40117;BME280;25829;50.228;18.936;2022-07-23T09:09:19;98467.31;;;36.81;30.28
40117;BME280;25829;50.228;18.936;2022-07-23T09:12:25;98485.50;;;37.00;32.83
40117;BME280;25829;50.228;18.936;2022-07-23T09:15:26;98480.63;;;37.34;32.91
40117;BME280;25829;50.228;18.936;2022-07-23T09:18:42;98476.03;;;37.70;30.89
40117;BME280;25829;50.228;18.936;2022-07-23T09:21:44;98477.28;;;37.98;32.69
40117;BME280;25829;50.228;18.936;2022-07-23T09:25:04;98479.28;;;38.47;28.25
40117;BME280;25829;50.228;18.936;2022-07-23T09:28:05;98478.91;;;38.74;31.11
40117;BME280;25829;50.228;18.936;2022-07-23T09:31:07;98476.50;;;39.01;30.22
40117;BME280;25829;50.228;18.936;2022-07-23T09:34:29;98480.03;;;39.12;27.51
40117;BME280;25829;50.228;18.936;2022-07-23T09:37:30;98475.72;;;39.04;30.60
40117;BME280;25829;50.228;18.936;2022-07-23T09:40:31;98480.06;;;38.94;30.23
40117;BME280;25829;50.228;18.936;2022-07-23T09:43:32;98466.31;;;38.66;29.79
40117;BME280;25829;50.228;18.936;2022-07-23T09:46:33;98469.06;;;38.26;29.84
40117;BME280;25829;50.228;18.936;2022-07-23T09:49:37;98475.31;;;37.95;30.04
40117;BME280;25829;50.228;18.936;2022-07-23T09:52:46;98470.47;;;37.59;29.41
40117;BME280;25829;50.228;18.936;2022-07-23T09:55:51;98467.81;;;36.97;31.25
40117;BME280;25829;50.228;18.936;2022-07-23T09:59:05;98468.94;;;36.34;31.46
40117;BME280;25829;50.228;18.936;2022-07-23T10:02:18;98457.38;;;35.46;32.18
40117;BME280;25829;50.228;18.936;2022-07-23T10:05:51;98451.31;;;35.00;31.83
40117;BME280;25829;50.228;18.936;2022-07-23T10:09:32;98456.19;;;34.60;30.05
40117;BME280;25829;50.228;18.936;2022-07-23T10:13:09;98462.28;;;34.27;29.87
40117;BME280;25829;50.228;18.936;2022-07-23T10:16:19;98453.34;;;34.07;31.71
40117;BME280;25829;50.228;18.936;2022-07-23T10:19:27;98447.09;;;33.87;31.07
40117;BME280;25829;50.228;18.936;2022-07-23T10:22:40;98440.66;;;33.57;30.83
40117;BME280;25829;50.228;18.936;2022-07-23T10:26:19;98438.34;;;33.39;30.14
40117;BME280;25829;50.228;18.936;2022-07-23T10:36:55;98436.47;;;33.24;30.90
40117;BME280;25829;50.228;18.936;2022-07-23T10:40:28;98436.59;;;33.12;29.77
40117;BME280;25829;50.228;18.936;2022-07-23T10:43:32;98423.19;;;32.87;32.17
40117;BME280;25829;50.228;18.936;2022-07-23T10:54:31;98414.38;;;32.78;31.59
40117;BME280;25829;50.228;18.936;2022-07-23T10:57:57;98418.53;;;32.72;31.21
40117;BME280;25829;50.228;18.936;2022-07-23T11:04:53;98400.84;;;32.50;31.94
40117;BME280;25829;50.228;18.936;2022-07-23T11:11:11;98398.56;;;32.36;32.96
40117;BME280;25829;50.228;18.936;2022-07-23T11:24:50;98380.75;;;32.58;31.67
40117;BME280;25829;50.228;18.936;2022-07-23T11:28:17;98387.47;;;32.61;31.42
40117;BME280;25829;50.228;18.936;2022-07-23T11:31:34;98376.53;;;32.61;31.74
40117;BME280;25829;50.228;18.936;2022-07-23T11:34:45;98381.06;;;32.53;31.32
40117;BME280;25829;50.228;18.936;2022-07-23T11:37:49;98375.81;;;32.48;32.37
40117;BME280;25829;50.228;18.936;2022-07-23T11:40:56;98379.44;;;32.52;32.25
40117;BME280;25829;50.228;18.936;2022-07-23T11:44:36;98375.94;;;32.51;30.80
40117;BME280;25829;50.228;18.936;2022-07-23T11:47:37;98362.59;;;32.50;32.00
40117;BME280;25829;50.228;18.936;2022-07-23T11:50:38;98366.59;;;32.53;31.95
40117;BME280;25829;50.228;18.936;2022-07-23T11:53:38;98358.31;;;32.49;31.75
40117;BME280;25829;50.228;18.936;2022-07-23T11:56:59;98351.09;;;32.41;30.38
40117;BME280;25829;50.228;18.936;2022-07-23T12:00:21;98348.63;;;32.36;31.09
40117;BME280;25829;50.228;18.936;2022-07-23T12:03:26;98343.19;;;32.36;31.87
40117;BME280;25829;50.228;18.936;2022-07-23T12:06:27;98334.53;;;32.34;31.93
40117;BME280;25829;50.228;18.936;2022-07-23T12:09:27;98338.78;;;32.31;32.01
40117;BME280;25829;50.228;18.936;2022-07-23T12:12:35;98346.69;;;32.36;31.78
40117;BME280;25829;50.228;18.936;2022-07-23T12:15:40;98346.34;;;32.38;32.07
40117;BME280;25829;50.228;18.936;2022-07-23T12:18:42;98339.22;;;32.33;31.98
40117;BME280;25829;50.228;18.936;2022-07-23T12:21:49;98344.50;;;32.26;31.90
40117;BME280;25829;50.228;18.936;2022-07-23T12:24:57;98332.97;;;32.17;31.48
40117;BME280;25829;50.228;18.936;2022-07-23T12:28:36;98330.38;;;32.04;31.95
40117;BME280;25829;50.228;18.936;2022-07-23T12:31:31;98319.88;;;31.91;32.57
40117;BME280;25829;50.228;18.936;2022-07-23T12:34:32;98318.81;;;31.79;32.59
40117;BME280;25829;50.228;18.936;2022-07-23T12:37:41;98322.09;;;31.69;32.39
40117;BME280;25829;50.228;18.936;2022-07-23T12:56:32;98308.50;;;31.13;33.41
40117;BME280;25829;50.228;18.936;2022-07-23T13:19:48;98295.47;;;31.06;34.43
40117;BME280;25829;50.228;18.936;2022-07-23T13:23:00;98293.09;;;31.05;34.23
40117;BME280;25829;50.228;18.936;2022-07-23T13:36:23;98276.31;;;30.62;36.83
40117;BME280;25829;50.228;18.936;2022-07-23T13:39:24;98267.41;;;30.50;37.00
40117;BME280;25829;50.228;18.936;2022-07-23T13:42:25;98266.69;;;30.40;37.25
40117;BME280;25829;50.228;18.936;2022-07-23T13:46:16;98280.66;;;30.27;37.01
40117;BME280;25829;50.228;18.936;2022-07-23T13:49:44;98294.50;;;30.09;37.82
40117;BME280;25829;50.228;18.936;2022-07-23T13:54:11;98305.94;;;29.78;38.06
40117;BME280;25829;50.228;18.936;2022-07-23T13:58:37;98320.50;;;29.37;40.87
40117;BME280;25829;50.228;18.936;2022-07-23T14:03:13;98325.53;;;29.05;43.67
40117;BME280;25829;50.228;18.936;2022-07-23T14:07:57;98308.59;;;28.87;45.17
40117;BME280;25829;50.228;18.936;2022-07-23T14:12:42;98341.81;;;28.63;48.07
40117;BME280;25829;50.228;18.936;2022-07-23T14:33:58;98408.53;;;27.01;44.52
40117;BME280;25829;50.228;18.936;2022-07-23T14:36:59;98407.44;;;27.02;45.00
40117;BME280;25829;50.228;18.936;2022-07-23T14:40:00;98399.13;;;27.07;44.98
40117;BME280;25829;50.228;18.936;2022-07-23T14:43:01;98390.53;;;26.96;44.81
40117;BME280;25829;50.228;18.936;2022-07-23T14:46:03;98374.59;;;26.86;46.37
40117;BME280;25829;50.228;18.936;2022-07-23T14:52:06;98364.59;;;26.29;47.15
40117;BME280;25829;50.228;18.936;2022-07-23T14:55:07;98370.13;;;26.24;47.19
40117;BME280;25829;50.228;18.936;2022-07-23T14:58:08;98368.81;;;26.04;47.54
40117;BME280;25829;50.228;18.936;2022-07-23T15:01:09;98386.38;;;25.93;47.93
40117;BME280;25829;50.228;18.936;2022-07-23T15:04:10;98379.13;;;25.80;48.73
40117;BME280;25829;50.228;18.936;2022-07-23T15:07:14;98373.75;;;25.57;47.95
40117;BME280;25829;50.228;18.936;2022-07-23T15:10:18;98369.38;;;25.39;48.05
40117;BME280;25829;50.228;18.936;2022-07-23T15:13:18;98368.50;;;25.30;48.15
40117;BME280;25829;50.228;18.936;2022-07-23T15:16:19;98366.91;;;25.29;50.51
40117;BME280;25829;50.228;18.936;2022-07-23T15:19:20;98365.06;;;25.24;50.09
40117;BME280;25829;50.228;18.936;2022-07-23T15:22:21;98364.41;;;25.18;48.84
40117;BME280;25829;50.228;18.936;2022-07-23T15:25:22;98374.16;;;25.06;51.39
40117;BME280;25829;50.228;18.936;2022-07-23T15:28:23;98369.22;;;24.85;50.14
40117;BME280;25829;50.228;18.936;2022-07-23T15:31:25;98376.63;;;24.80;50.91
40117;BME280;25829;50.228;18.936;2022-07-23T15:34:26;98370.59;;;24.83;50.37
40117;BME280;25829;50.228;18.936;2022-07-23T15:37:29;98373.22;;;24.60;52.10
40117;BME280;25829;50.228;18.936;2022-07-23T15:40:33;98376.03;;;24.41;52.46
40117;BME280;25829;50.228;18.936;2022-07-23T15:43:34;98368.38;;;24.35;54.61
40117;BME280;25829;50.228;18.936;2022-07-23T15:46:35;98382.44;;;24.32;52.34
40117;BME280;25829;50.228;18.936;2022-07-23T15:49:35;98388.84;;;24.36;51.82
40117;BME280;25829;50.228;18.936;2022-07-23T15:52:36;98383.03;;;24.28;54.06
40117;BME280;25829;50.228;18.936;2022-07-23T15:55:38;98378.44;;;24.29;52.48
40117;BME280;25829;50.228;18.936;2022-07-23T15:58:39;98384.63;;;24.29;52.92
40117;BME280;25829;50.228;18.936;2022-07-23T16:01:40;98373.13;;;24.38;52.07
40117;BME280;25829;50.228;18.936;2022-07-23T16:04:40;98382.94;;;24.47;52.14
40117;BME280;25829;50.228;18.936;2022-07-23T16:07:41;98390.72;;;24.49;52.19
40117;BME280;25829;50.228;18.936;2022-07-23T16:10:42;98388.72;;;24.54;53.25
40117;BME280;25829;50.228;18.936;2022-07-23T16:13:46;98391.00;;;24.47;52.70
40117;BME280;25829;50.228;18.936;2022-07-23T16:16:47;98386.72;;;24.46;53.72
40117;BME280;25829;50.228;18.936;2022-07-23T16:19:48;98391.22;;;24.37;54.56
40117;BME280;25829;50.228;18.936;2022-07-23T16:22:49;98389.63;;;24.22;55.25
40117;BME280;25829;50.228;18.936;2022-07-23T16:25:49;98396.00;;;24.13;54.39
40117;BME280;25829;50.228;18.936;2022-07-23T16:28:51;98392.81;;;24.11;55.06
40117;BME280;25829;50.228;18.936;2022-07-23T16:31:52;98397.19;;;24.06;55.21
40117;BME280;25829;50.228;18.936;2022-07-23T16:34:52;98376.88;;;23.95;56.00
40117;BME280;25829;50.228;18.936;2022-07-23T16:37:53;98383.19;;;23.91;53.53
40117;BME280;25829;50.228;18.936;2022-07-23T16:40:54;98385.88;;;23.91;53.65
40117;BME280;25829;50.228;18.936;2022-07-23T16:43:56;98400.53;;;23.85;54.07
40117;BME280;25829;50.228;18.936;2022-07-23T16:46:56;98398.13;;;23.83;54.07
40117;BME280;25829;50.228;18.936;2022-07-23T16:49:57;98411.31;;;23.85;53.58
40117;BME280;25829;50.228;18.936;2022-07-23T16:52:58;98413.59;;;23.91;53.21
40117;BME280;25829;50.228;18.936;2022-07-23T16:55:59;98419.44;;;23.98;53.53
40117;BME280;25829;50.228;18.936;2022-07-23T16:58:59;98421.34;;;23.98;53.57
40117;BME280;25829;50.228;18.936;2022-07-23T17:02:00;98414.59;;;23.95;53.90
40117;BME280;25829;50.228;18.936;2022-07-23T17:05:01;98420.31;;;23.94;52.97
40117;BME280;25829;50.228;18.936;2022-07-23T17:08:03;98425.50;;;23.90;54.02
40117;BME280;25829;50.228;18.936;2022-07-23T17:11:03;98437.13;;;23.86;53.43
40117;BME280;25829;50.228;18.936;2022-07-23T17:14:04;98446.91;;;23.81;53.38
40117;BME280;25829;50.228;18.936;2022-07-23T17:17:06;98451.44;;;23.86;53.21
40117;BME280;25829;50.228;18.936;2022-07-23T17:20:07;98441.34;;;23.92;52.99
40117;BME280;25829;50.228;18.936;2022-07-23T17:23:08;98434.81;;;23.98;52.67
40117;BME280;25829;50.228;18.936;2022-07-23T17:26:09;98437.91;;;24.05;52.75
40117;BME280;25829;50.228;18.936;2022-07-23T17:29:10;98438.44;;;24.07;52.78
40117;BME280;25829;50.228;18.936;2022-07-23T17:32:11;98453.19;;;24.10;52.57
40117;BME280;25829;50.228;18.936;2022-07-23T17:35:13;98448.81;;;24.14;52.51
40117;BME280;25829;50.228;18.936;2022-07-23T17:38:13;98457.13;;;24.17;52.46
40117;BME280;25829;50.228;18.936;2022-07-23T17:41:15;98448.13;;;24.22;52.67
40117;BME280;25829;50.228;18.936;2022-07-23T17:44:17;98452.41;;;24.23;52.53
40117;BME280;25829;50.228;18.936;2022-07-23T17:47:18;98459.50;;;24.19;53.08
40117;BME280;25829;50.228;18.936;2022-07-23T17:50:19;98469.56;;;24.13;53.03
40117;BME280;25829;50.228;18.936;2022-07-23T17:53:20;98466.38;;;24.11;53.17
40117;BME280;25829;50.228;18.936;2022-07-23T17:56:23;98473.97;;;24.09;53.13
40117;BME280;25829;50.228;18.936;2022-07-23T17:59:26;98480.53;;;24.03;53.08
40117;BME280;25829;50.228;18.936;2022-07-23T18:02:27;98490.03;;;24.00;53.39
40117;BME280;25829;50.228;18.936;2022-07-23T18:05:28;98480.31;;;23.99;53.41
40117;BME280;25829;50.228;18.936;2022-07-23T18:08:29;98485.22;;;23.97;53.09
40117;BME280;25829;50.228;18.936;2022-07-23T18:11:30;98496.25;;;23.96;53.27